sensor_id;sensor_type;location;lat;lon;timestamp;temperature;humidity
22526;DHT22;11429;50.842;4.386;2022-07-04T00:00:49;18.30;99.90
22526;DHT22;11429;50.842;4.386;2022-07-04T00:03:15;18.20;99.90
22526;DHT22;11429;50.842;4.386;2022-07-04T00:05:40;18.30;99.90
22526;DHT22;11429;50.842;4.386;2022-07-04T00:08:06;18.20;99.90
22526;DHT22;11429;50.842;4.386;2022-07-04T00:10:32;18.10;99.90
22526;DHT22;11429;50.842;4.386;2022-07-04T00:12:58;18.00;99.90
22526;DHT22;11429;50.842;4.386;2022-07-04T00:15:23;17.90;99.90
22526;DHT22;11429;50.842;4.386;2022-07-04T00:17:50;17.80;99.90
22526;DHT22;11429;50.842;4.386;2022-07-04T00:20:16;17.90;99.90
22526;DHT22;11429;50.842;4.386;2022-07-04T00:22:42;18.00;99.90
22526;DHT22;11429;50.842;4.386;2022-07-04T00:25:08;17.80;99.90
22526;DHT22;11429;50.842;4.386;2022-07-04T00:27:33;17.80;99.90
22526;DHT22;11429;50.842;4.386;2022-07-04T00:29:59;17.80;99.90
22526;DHT22;11429;50.842;4.386;2022-07-04T00:32:25;17.60;99.90
22526;DHT22;11429;50.842;4.386;2022-07-04T00:34:50;17.70;99.90
22526;DHT22;11429;50.842;4.386;2022-07-04T00:37:16;17.70;99.90
22526;DHT22;11429;50.842;4.386;2022-07-04T00:39:42;17.80;99.90
22526;DHT22;11429;50.842;4.386;2022-07-04T00:42:08;17.80;99.90
22526;DHT22;11429;50.842;4.386;2022-07-04T00:44:34;17.80;99.90
22526;DHT22;11429;50.842;4.386;2022-07-04T00:47:06;17.70;99.90
22526;DHT22;11429;50.842;4.386;2022-07-04T00:49:33;17.70;99.90
22526;DHT22;11429;50.842;4.386;2022-07-04T00:52:00;17.70;99.90
22526;DHT22;11429;50.842;4.386;2022-07-04T00:54:28;17.70;99.90
22526;DHT22;11429;50.842;4.386;2022-07-04T00:56:55;17.70;99.90
22526;DHT22;11429;50.842;4.386;2022-07-04T00:59:21;17.70;99.90
22526;DHT22;11429;50.842;4.386;2022-07-04T01:01:48;17.80;99.90
22526;DHT22;11429;50.842;4.386;2022-07-04T01:04:14;17.70;99.90
22526;DHT22;11429;50.842;4.386;2022-07-04T01:06:40;17.60;99.90
22526;DHT22;11429;50.842;4.386;2022-07-04T01:09:06;17.60;99.90
22526;DHT22;11429;50.842;4.386;2022-07-04T01:11:31;17.60;99.90
22526;DHT22;11429;50.842;4.386;2022-07-04T01:13:57;17.70;99.90
22526;DHT22;11429;50.842;4.386;2022-07-04T01:16:27;17.80;99.90
22526;DHT22;11429;50.842;4.386;2022-07-04T01:18:53;17.80;99.90
22526;DHT22;11429;50.842;4.386;2022-07-04T01:21:19;17.60;99.90
22526;DHT22;11429;50.842;4.386;2022-07-04T01:23:45;17.50;99.90
22526;DHT22;11429;50.842;4.386;2022-07-04T01:26:11;17.40;99.90
22526;DHT22;11429;50.842;4.386;2022-07-04T01:28:37;17.50;99.90
22526;DHT22;11429;50.842;4.386;2022-07-04T01:31:03;17.20;99.90
22526;DHT22;11429;50.842;4.386;2022-07-04T01:33:29;17.20;99.90
22526;DHT22;11429;50.842;4.386;2022-07-04T01:35:55;17.20;99.90
22526;DHT22;11429;50.842;4.386;2022-07-04T01:38:21;17.20;99.90
22526;DHT22;11429;50.842;4.386;2022-07-04T01:40:47;17.20;99.90
22526;DHT22;11429;50.842;4.386;2022-07-04T01:43:12;17.20;99.90
22526;DHT22;11429;50.842;4.386;2022-07-04T01:45:38;17.40;99.90
22526;DHT22;11429;50.842;4.386;2022-07-04T01:48:09;17.20;99.90
22526;DHT22;11429;50.842;4.386;2022-07-04T01:50:35;17.30;99.90
22526;DHT22;11429;50.842;4.386;2022-07-04T01:53:02;17.20;99.90
22526;DHT22;11429;50.842;4.386;2022-07-04T01:55:28;17.10;99.90
22526;DHT22;11429;50.842;4.386;2022-07-04T01:57:54;17.00;99.90
22526;DHT22;11429;50.842;4.386;2022-07-04T02:00:20;17.00;99.90
22526;DHT22;11429;50.842;4.386;2022-07-04T02:03:04;16.90;99.90
22526;DHT22;11429;50.842;4.386;2022-07-04T02:05:30;16.90;99.90
22526;DHT22;11429;50.842;4.386;2022-07-04T02:07:56;16.80;99.90
22526;DHT22;11429;50.842;4.386;2022-07-04T02:10:22;16.90;99.90
22526;DHT22;11429;50.842;4.386;2022-07-04T02:12:48;16.90;99.90
22526;DHT22;11429;50.842;4.386;2022-07-04T02:15:35;16.80;99.90
22526;DHT22;11429;50.842;4.386;2022-07-04T02:18:03;17.00;99.90
22526;DHT22;11429;50.842;4.386;2022-07-04T02:20:29;16.70;99.90
22526;DHT22;11429;50.842;4.386;2022-07-04T02:22:55;16.60;99.90
22526;DHT22;11429;50.842;4.386;2022-07-04T02:25:21;16.60;99.90
22526;DHT22;11429;50.842;4.386;2022-07-04T02:27:47;16.70;99.90
22526;DHT22;11429;50.842;4.386;2022-07-04T02:30:12;16.40;99.90
22526;DHT22;11429;50.842;4.386;2022-07-04T02:32:39;16.40;99.90
22526;DHT22;11429;50.842;4.386;2022-07-04T02:35:05;16.20;99.90
22526;DHT22;11429;50.842;4.386;2022-07-04T02:37:31;16.30;99.90
22526;DHT22;11429;50.842;4.386;2022-07-04T02:39:57;16.20;99.90
22526;DHT22;11429;50.842;4.386;2022-07-04T02:42:23;16.30;99.90
22526;DHT22;11429;50.842;4.386;2022-07-04T02:44:49;16.30;99.90
22526;DHT22;11429;50.842;4.386;2022-07-04T02:47:15;16.30;99.90
22526;DHT22;11429;50.842;4.386;2022-07-04T02:49:41;16.00;99.90
22526;DHT22;11429;50.842;4.386;2022-07-04T02:52:07;15.80;99.90
22526;DHT22;11429;50.842;4.386;2022-07-04T02:54:33;16.00;99.90
22526;DHT22;11429;50.842;4.386;2022-07-04T02:56:59;16.20;99.90
22526;DHT22;11429;50.842;4.386;2022-07-04T02:59:24;15.90;99.90
22526;DHT22;11429;50.842;4.386;2022-07-04T03:01:50;15.70;99.90
22526;DHT22;11429;50.842;4.386;2022-07-04T03:04:16;15.70;99.90
22526;DHT22;11429;50.842;4.386;2022-07-04T03:06:41;15.90;99.90
22526;DHT22;11429;50.842;4.386;2022-07-04T03:09:08;16.00;99.90
22526;DHT22;11429;50.842;4.386;2022-07-04T03:11:34;16.00;99.90
22526;DHT22;11429;50.842;4.386;2022-07-04T03:13:59;16.10;99.90
22526;DHT22;11429;50.842;4.386;2022-07-04T03:16:25;15.90;99.90
22526;DHT22;11429;50.842;4.386;2022-07-04T03:18:51;15.90;99.90
22526;DHT22;11429;50.842;4.386;2022-07-04T03:21:16;16.10;99.90
22526;DHT22;11429;50.842;4.386;2022-07-04T03:23:42;16.20;99.90
22526;DHT22;11429;50.842;4.386;2022-07-04T03:26:08;16.20;99.90
22526;DHT22;11429;50.842;4.386;2022-07-04T03:28:34;15.90;99.90
22526;DHT22;11429;50.842;4.386;2022-07-04T03:31:00;16.10;99.90
22526;DHT22;11429;50.842;4.386;2022-07-04T03:33:26;16.00;99.90
22526;DHT22;11429;50.842;4.386;2022-07-04T03:35:52;16.00;99.90
22526;DHT22;11429;50.842;4.386;2022-07-04T03:38:17;16.20;99.90
22526;DHT22;11429;50.842;4.386;2022-07-04T03:40:43;16.10;99.90
22526;DHT22;11429;50.842;4.386;2022-07-04T03:43:09;16.10;99.90
22526;DHT22;11429;50.842;4.386;2022-07-04T03:45:34;16.10;99.90
22526;DHT22;11429;50.842;4.386;2022-07-04T03:48:00;16.10;99.90
22526;DHT22;11429;50.842;4.386;2022-07-04T03:50:28;16.10;99.90
22526;DHT22;11429;50.842;4.386;2022-07-04T03:52:54;16.20;99.90
22526;DHT22;11429;50.842;4.386;2022-07-04T03:55:20;16.20;99.90
22526;DHT22;11429;50.842;4.386;2022-07-04T03:57:46;15.90;99.90
22526;DHT22;11429;50.842;4.386;2022-07-04T04:00:12;16.00;99.90
22526;DHT22;11429;50.842;4.386;2022-07-04T04:02:38;16.20;99.90
22526;DHT22;11429;50.842;4.386;2022-07-04T04:05:05;16.10;99.90
22526;DHT22;11429;50.842;4.386;2022-07-04T04:07:49;16.10;99.90
22526;DHT22;11429;50.842;4.386;2022-07-04T04:10:15;16.20;99.90
22526;DHT22;11429;50.842;4.386;2022-07-04T04:12:41;16.30;99.90
22526;DHT22;11429;50.842;4.386;2022-07-04T04:15:07;16.30;99.90
22526;DHT22;11429;50.842;4.386;2022-07-04T04:17:33;16.40;99.90
22526;DHT22;11429;50.842;4.386;2022-07-04T04:19:58;16.10;99.90
22526;DHT22;11429;50.842;4.386;2022-07-04T04:22:24;16.10;99.90
22526;DHT22;11429;50.842;4.386;2022-07-04T04:24:50;15.90;99.90
22526;DHT22;11429;50.842;4.386;2022-07-04T04:27:15;15.70;99.90
22526;DHT22;11429;50.842;4.386;2022-07-04T04:29:41;15.90;99.90
22526;DHT22;11429;50.842;4.386;2022-07-04T04:32:07;16.10;99.90
22526;DHT22;11429;50.842;4.386;2022-07-04T04:34:33;16.00;99.90
22526;DHT22;11429;50.842;4.386;2022-07-04T04:36:59;16.00;99.90
22526;DHT22;11429;50.842;4.386;2022-07-04T04:39:25;15.90;99.90
22526;DHT22;11429;50.842;4.386;2022-07-04T04:41:51;16.00;99.90
22526;DHT22;11429;50.842;4.386;2022-07-04T04:44:17;15.80;99.90
22526;DHT22;11429;50.842;4.386;2022-07-04T04:46:44;15.80;99.90
22526;DHT22;11429;50.842;4.386;2022-07-04T04:49:10;15.70;99.90
22526;DHT22;11429;50.842;4.386;2022-07-04T04:51:36;15.80;99.90
22526;DHT22;11429;50.842;4.386;2022-07-04T04:54:02;15.70;99.90
22526;DHT22;11429;50.842;4.386;2022-07-04T04:56:28;15.90;99.90
22526;DHT22;11429;50.842;4.386;2022-07-04T04:58:53;15.90;99.90
22526;DHT22;11429;50.842;4.386;2022-07-04T05:01:19;15.90;99.90
22526;DHT22;11429;50.842;4.386;2022-07-04T05:03:45;16.00;99.90
22526;DHT22;11429;50.842;4.386;2022-07-04T05:06:10;16.00;99.90
22526;DHT22;11429;50.842;4.386;2022-07-04T05:08:36;16.90;99.90
22526;DHT22;11429;50.842;4.386;2022-07-04T05:11:02;18.30;99.90
22526;DHT22;11429;50.842;4.386;2022-07-04T05:13:27;20.30;99.90
22526;DHT22;11429;50.842;4.386;2022-07-04T05:15:53;21.90;99.90
22526;DHT22;11429;50.842;4.386;2022-07-04T05:18:19;22.20;99.90
22526;DHT22;11429;50.842;4.386;2022-07-04T05:20:45;23.00;99.90
22526;DHT22;11429;50.842;4.386;2022-07-04T05:23:10;23.50;99.90
22526;DHT22;11429;50.842;4.386;2022-07-04T05:25:37;24.90;99.90
22526;DHT22;11429;50.842;4.386;2022-07-04T05:28:02;24.70;99.90
22526;DHT22;11429;50.842;4.386;2022-07-04T05:30:28;24.20;99.90
22526;DHT22;11429;50.842;4.386;2022-07-04T05:32:54;25.30;99.90
22526;DHT22;11429;50.842;4.386;2022-07-04T05:35:20;26.30;99.90
22526;DHT22;11429;50.842;4.386;2022-07-04T05:37:45;27.00;99.90
22526;DHT22;11429;50.842;4.386;2022-07-04T05:40:12;26.70;99.90
22526;DHT22;11429;50.842;4.386;2022-07-04T05:42:37;27.90;99.90
22526;DHT22;11429;50.842;4.386;2022-07-04T05:45:03;27.70;99.90
22526;DHT22;11429;50.842;4.386;2022-07-04T05:47:29;28.40;99.90
22526;DHT22;11429;50.842;4.386;2022-07-04T05:49:55;28.40;99.90
22526;DHT22;11429;50.842;4.386;2022-07-04T05:52:22;28.80;99.60
22526;DHT22;11429;50.842;4.386;2022-07-04T05:54:47;28.20;99.90
22526;DHT22;11429;50.842;4.386;2022-07-04T05:57:14;28.30;98.70
22526;DHT22;11429;50.842;4.386;2022-07-04T05:59:40;30.10;97.40
22526;DHT22;11429;50.842;4.386;2022-07-04T06:02:05;29.10;96.80
22526;DHT22;11429;50.842;4.386;2022-07-04T06:04:31;30.10;96.40
22526;DHT22;11429;50.842;4.386;2022-07-04T06:06:57;29.70;96.60
22526;DHT22;11429;50.842;4.386;2022-07-04T06:09:23;29.40;96.40
22526;DHT22;11429;50.842;4.386;2022-07-04T06:11:48;27.80;97.40
22526;DHT22;11429;50.842;4.386;2022-07-04T06:14:14;26.20;99.40
22526;DHT22;11429;50.842;4.386;2022-07-04T06:16:40;25.40;99.90
22526;DHT22;11429;50.842;4.386;2022-07-04T06:19:05;26.40;99.90
22526;DHT22;11429;50.842;4.386;2022-07-04T06:21:31;28.10;98.60
22526;DHT22;11429;50.842;4.386;2022-07-04T06:23:57;30.40;95.80
22526;DHT22;11429;50.842;4.386;2022-07-04T06:26:23;30.60;94.40
22526;DHT22;11429;50.842;4.386;2022-07-04T06:28:49;31.60;93.30
22526;DHT22;11429;50.842;4.386;2022-07-04T06:31:15;31.80;92.60
22526;DHT22;11429;50.842;4.386;2022-07-04T06:33:41;32.90;91.10
22526;DHT22;11429;50.842;4.386;2022-07-04T06:36:26;32.70;90.40
22526;DHT22;11429;50.842;4.386;2022-07-04T06:38:51;31.20;91.40
22526;DHT22;11429;50.842;4.386;2022-07-04T06:41:17;31.20;90.90
22526;DHT22;11429;50.842;4.386;2022-07-04T06:43:43;30.60;91.30
22526;DHT22;11429;50.842;4.386;2022-07-04T06:46:09;32.90;88.30
22526;DHT22;11429;50.842;4.386;2022-07-04T06:48:35;32.10;88.70
22526;DHT22;11429;50.842;4.386;2022-07-04T06:51:01;32.90;86.80
22526;DHT22;11429;50.842;4.386;2022-07-04T06:53:27;32.90;86.30
22526;DHT22;11429;50.842;4.386;2022-07-04T06:55:53;32.10;85.20
22526;DHT22;11429;50.842;4.386;2022-07-04T06:58:18;31.90;86.70
22526;DHT22;11429;50.842;4.386;2022-07-04T07:00:44;32.10;87.40
22526;DHT22;11429;50.842;4.386;2022-07-04T07:03:10;27.90;91.50
22526;DHT22;11429;50.842;4.386;2022-07-04T07:05:36;28.20;92.10
22526;DHT22;11429;50.842;4.386;2022-07-04T07:08:04;28.70;91.60
22526;DHT22;11429;50.842;4.386;2022-07-04T07:10:30;29.50;91.30
22526;DHT22;11429;50.842;4.386;2022-07-04T07:13:00;31.80;88.30
22526;DHT22;11429;50.842;4.386;2022-07-04T07:15:26;32.60;86.30
22526;DHT22;11429;50.842;4.386;2022-07-04T07:17:51;34.00;84.30
22526;DHT22;11429;50.842;4.386;2022-07-04T07:20:17;32.40;85.10
22526;DHT22;11429;50.842;4.386;2022-07-04T07:22:43;33.90;84.90
22526;DHT22;11429;50.842;4.386;2022-07-04T07:25:10;33.60;83.60
22526;DHT22;11429;50.842;4.386;2022-07-04T07:27:37;34.50;82.20
22526;DHT22;11429;50.842;4.386;2022-07-04T07:30:04;35.20;81.00
22526;DHT22;11429;50.842;4.386;2022-07-04T07:32:30;32.80;83.00
22526;DHT22;11429;50.842;4.386;2022-07-04T07:34:55;32.90;85.30
22526;DHT22;11429;50.842;4.386;2022-07-04T07:37:21;31.10;86.90
22526;DHT22;11429;50.842;4.386;2022-07-04T07:39:48;30.10;89.40
22526;DHT22;11429;50.842;4.386;2022-07-04T07:42:15;29.30;90.70
22526;DHT22;11429;50.842;4.386;2022-07-04T07:44:41;31.00;90.20
22526;DHT22;11429;50.842;4.386;2022-07-04T07:47:06;32.10;88.60
22526;DHT22;11429;50.842;4.386;2022-07-04T07:49:33;31.30;85.80
22526;DHT22;11429;50.842;4.386;2022-07-04T07:51:58;31.30;86.90
22526;DHT22;11429;50.842;4.386;2022-07-04T07:54:24;31.70;85.70
22526;DHT22;11429;50.842;4.386;2022-07-04T07:56:50;33.70;83.00
22526;DHT22;11429;50.842;4.386;2022-07-04T07:59:16;33.70;80.10
22526;DHT22;11429;50.842;4.386;2022-07-04T08:01:42;31.20;84.00
22526;DHT22;11429;50.842;4.386;2022-07-04T08:04:08;33.40;83.10
22526;DHT22;11429;50.842;4.386;2022-07-04T08:06:52;34.20;79.80
22526;DHT22;11429;50.842;4.386;2022-07-04T08:09:18;33.00;80.10
22526;DHT22;11429;50.842;4.386;2022-07-04T08:11:43;33.30;78.90
22526;DHT22;11429;50.842;4.386;2022-07-04T08:14:09;31.20;83.10
22526;DHT22;11429;50.842;4.386;2022-07-04T08:16:35;31.10;83.30
22526;DHT22;11429;50.842;4.386;2022-07-04T08:19:01;32.90;81.60
22526;DHT22;11429;50.842;4.386;2022-07-04T08:21:27;34.10;78.60
22526;DHT22;11429;50.842;4.386;2022-07-04T08:23:53;33.60;79.30
22526;DHT22;11429;50.842;4.386;2022-07-04T08:26:19;32.90;78.70
22526;DHT22;11429;50.842;4.386;2022-07-04T08:28:45;31.80;81.50
22526;DHT22;11429;50.842;4.386;2022-07-04T08:31:11;31.40;84.30
22526;DHT22;11429;50.842;4.386;2022-07-04T08:33:36;32.60;80.40
22526;DHT22;11429;50.842;4.386;2022-07-04T08:36:03;34.70;77.50
22526;DHT22;11429;50.842;4.386;2022-07-04T08:38:29;36.20;74.40
22526;DHT22;11429;50.842;4.386;2022-07-04T08:40:59;35.20;74.40
22526;DHT22;11429;50.842;4.386;2022-07-04T08:43:27;34.20;75.90
22526;DHT22;11429;50.842;4.386;2022-07-04T08:45:59;35.40;72.50
22526;DHT22;11429;50.842;4.386;2022-07-04T08:48:25;34.50;74.40
22526;DHT22;11429;50.842;4.386;2022-07-04T08:51:06;33.70;74.90
22526;DHT22;11429;50.842;4.386;2022-07-04T08:53:37;32.50;79.10
22526;DHT22;11429;50.842;4.386;2022-07-04T08:56:04;30.80;80.30
22526;DHT22;11429;50.842;4.386;2022-07-04T08:58:49;30.40;82.40
22526;DHT22;11429;50.842;4.386;2022-07-04T09:01:16;30.30;81.60
22526;DHT22;11429;50.842;4.386;2022-07-04T09:03:44;31.30;78.90
22526;DHT22;11429;50.842;4.386;2022-07-04T09:06:12;31.10;80.30
22526;DHT22;11429;50.842;4.386;2022-07-04T09:08:40;31.80;80.10
22526;DHT22;11429;50.842;4.386;2022-07-04T09:11:07;31.90;79.60
22526;DHT22;11429;50.842;4.386;2022-07-04T09:13:33;32.30;78.00
22526;DHT22;11429;50.842;4.386;2022-07-04T09:16:00;31.40;80.50
22526;DHT22;11429;50.842;4.386;2022-07-04T09:18:35;30.30;81.70
22526;DHT22;11429;50.842;4.386;2022-07-04T09:21:04;29.40;84.80
22526;DHT22;11429;50.842;4.386;2022-07-04T09:23:33;31.50;81.90
22526;DHT22;11429;50.842;4.386;2022-07-04T09:26:09;31.40;80.10
22526;DHT22;11429;50.842;4.386;2022-07-04T09:28:35;31.40;80.30
22526;DHT22;11429;50.842;4.386;2022-07-04T09:31:01;31.00;82.10
22526;DHT22;11429;50.842;4.386;2022-07-04T09:36:18;33.40;78.00
22526;DHT22;11429;50.842;4.386;2022-07-04T09:38:44;32.10;79.30
22526;DHT22;11429;50.842;4.386;2022-07-04T09:41:10;32.60;78.90
22526;DHT22;11429;50.842;4.386;2022-07-04T09:44:05;32.00;78.20
22526;DHT22;11429;50.842;4.386;2022-07-04T09:46:32;33.10;79.00
22526;DHT22;11429;50.842;4.386;2022-07-04T09:48:59;32.90;76.50
22526;DHT22;11429;50.842;4.386;2022-07-04T09:56:42;31.70;80.70
22526;DHT22;11429;50.842;4.386;2022-07-04T09:59:08;30.50;83.60
22526;DHT22;11429;50.842;4.386;2022-07-04T10:01:34;32.50;80.60
22526;DHT22;11429;50.842;4.386;2022-07-04T10:03:59;30.60;80.80
22526;DHT22;11429;50.842;4.386;2022-07-04T10:06:25;29.00;84.00
22526;DHT22;11429;50.842;4.386;2022-07-04T10:08:51;30.20;83.50
22526;DHT22;11429;50.842;4.386;2022-07-04T10:11:17;31.00;82.40
22526;DHT22;11429;50.842;4.386;2022-07-04T10:13:44;31.80;81.40
22526;DHT22;11429;50.842;4.386;2022-07-04T10:16:10;31.70;78.90
22526;DHT22;11429;50.842;4.386;2022-07-04T10:18:36;31.70;78.50
22526;DHT22;11429;50.842;4.386;2022-07-04T10:21:03;30.00;82.20
22526;DHT22;11429;50.842;4.386;2022-07-04T10:23:29;30.00;81.60
22526;DHT22;11429;50.842;4.386;2022-07-04T10:25:59;30.50;80.90
22526;DHT22;11429;50.842;4.386;2022-07-04T10:28:25;31.30;79.90
22526;DHT22;11429;50.842;4.386;2022-07-04T10:30:53;32.20;79.40
22526;DHT22;11429;50.842;4.386;2022-07-04T10:33:27;32.50;77.80
22526;DHT22;11429;50.842;4.386;2022-07-04T10:35:58;31.50;79.40
22526;DHT22;11429;50.842;4.386;2022-07-04T10:38:34;30.90;80.50
22526;DHT22;11429;50.842;4.386;2022-07-04T10:41:04;31.50;79.50
22526;DHT22;11429;50.842;4.386;2022-07-04T10:48:52;32.10;80.10
22526;DHT22;11429;50.842;4.386;2022-07-04T10:51:38;32.00;80.40
22526;DHT22;11429;50.842;4.386;2022-07-04T10:56:44;29.50;84.40
22526;DHT22;11429;50.842;4.386;2022-07-04T10:59:12;30.80;81.50
22526;DHT22;11429;50.842;4.386;2022-07-04T11:01:39;31.00;80.70
22526;DHT22;11429;50.842;4.386;2022-07-04T11:04:09;31.40;81.60
22526;DHT22;11429;50.842;4.386;2022-07-04T11:09:18;33.40;75.70
22526;DHT22;11429;50.842;4.386;2022-07-04T11:11:48;33.20;75.70
22526;DHT22;11429;50.842;4.386;2022-07-04T11:16:58;33.10;78.20
22526;DHT22;11429;50.842;4.386;2022-07-04T11:19:24;31.90;82.40
22526;DHT22;11429;50.842;4.386;2022-07-04T11:21:50;32.40;79.70
22526;DHT22;11429;50.842;4.386;2022-07-04T11:24:17;32.90;77.60
22526;DHT22;11429;50.842;4.386;2022-07-04T11:26:42;31.20;81.90
22526;DHT22;11429;50.842;4.386;2022-07-04T11:29:11;31.90;81.80
22526;DHT22;11429;50.842;4.386;2022-07-04T11:31:38;31.80;82.40
22526;DHT22;11429;50.842;4.386;2022-07-04T11:34:05;31.90;80.20
22526;DHT22;11429;50.842;4.386;2022-07-04T11:36:31;30.70;82.50
22526;DHT22;11429;50.842;4.386;2022-07-04T11:38:58;29.30;85.40
22526;DHT22;11429;50.842;4.386;2022-07-04T11:41:29;29.20;86.30
22526;DHT22;11429;50.842;4.386;2022-07-04T11:44:18;28.70;88.00
22526;DHT22;11429;50.842;4.386;2022-07-04T11:47:07;28.20;89.20
22526;DHT22;11429;50.842;4.386;2022-07-04T11:49:33;28.20;87.50
22526;DHT22;11429;50.842;4.386;2022-07-04T11:51:59;28.10;88.90
22526;DHT22;11429;50.842;4.386;2022-07-04T11:54:25;28.90;87.50
22526;DHT22;11429;50.842;4.386;2022-07-04T11:56:50;29.20;86.00
22526;DHT22;11429;50.842;4.386;2022-07-04T11:59:17;28.60;87.70
22526;DHT22;11429;50.842;4.386;2022-07-04T12:01:44;28.50;87.70
22526;DHT22;11429;50.842;4.386;2022-07-04T12:06:38;28.80;89.30
22526;DHT22;11429;50.842;4.386;2022-07-04T12:09:04;29.10;84.80
22526;DHT22;11429;50.842;4.386;2022-07-04T12:11:56;28.90;87.80
22526;DHT22;11429;50.842;4.386;2022-07-04T12:14:23;28.90;86.40
22526;DHT22;11429;50.842;4.386;2022-07-04T12:16:48;28.90;87.00
22526;DHT22;11429;50.842;4.386;2022-07-04T12:19:14;29.30;86.20
22526;DHT22;11429;50.842;4.386;2022-07-04T12:21:42;29.10;86.30
22526;DHT22;11429;50.842;4.386;2022-07-04T12:24:08;28.30;87.40
22526;DHT22;11429;50.842;4.386;2022-07-04T12:26:44;28.30;88.50
22526;DHT22;11429;50.842;4.386;2022-07-04T12:29:11;28.60;88.40
22526;DHT22;11429;50.842;4.386;2022-07-04T12:31:41;28.30;89.00
22526;DHT22;11429;50.842;4.386;2022-07-04T12:34:15;27.90;89.20
22526;DHT22;11429;50.842;4.386;2022-07-04T12:36:51;27.50;90.50
22526;DHT22;11429;50.842;4.386;2022-07-04T12:39:34;27.00;90.90
22526;DHT22;11429;50.842;4.386;2022-07-04T12:42:19;26.90;91.10
22526;DHT22;11429;50.842;4.386;2022-07-04T12:44:46;26.70;90.90
22526;DHT22;11429;50.842;4.386;2022-07-04T12:47:15;26.60;90.70
22526;DHT22;11429;50.842;4.386;2022-07-04T12:49:45;26.70;90.80
22526;DHT22;11429;50.842;4.386;2022-07-04T12:52:16;27.20;89.80
22526;DHT22;11429;50.842;4.386;2022-07-04T12:54:43;27.40;90.10
22526;DHT22;11429;50.842;4.386;2022-07-04T12:57:14;26.90;89.50
22526;DHT22;11429;50.842;4.386;2022-07-04T12:59:41;26.30;90.80
22526;DHT22;11429;50.842;4.386;2022-07-04T13:02:09;26.30;90.90
22526;DHT22;11429;50.842;4.386;2022-07-04T13:04:35;26.20;91.00
22526;DHT22;11429;50.842;4.386;2022-07-04T13:07:15;26.20;90.70
22526;DHT22;11429;50.842;4.386;2022-07-04T13:09:44;26.30;90.80
22526;DHT22;11429;50.842;4.386;2022-07-04T13:12:11;26.80;90.30
22526;DHT22;11429;50.842;4.386;2022-07-04T13:14:54;26.90;86.90
22526;DHT22;11429;50.842;4.386;2022-07-04T13:17:21;26.50;87.60
22526;DHT22;11429;50.842;4.386;2022-07-04T13:19:47;26.50;88.20
22526;DHT22;11429;50.842;4.386;2022-07-04T13:22:13;26.60;89.80
22526;DHT22;11429;50.842;4.386;2022-07-04T13:24:39;26.50;90.70
22526;DHT22;11429;50.842;4.386;2022-07-04T13:27:05;26.70;90.30
22526;DHT22;11429;50.842;4.386;2022-07-04T13:29:31;27.00;89.60
22526;DHT22;11429;50.842;4.386;2022-07-04T13:31:58;26.60;90.50
22526;DHT22;11429;50.842;4.386;2022-07-04T13:34:24;26.80;90.00
22526;DHT22;11429;50.842;4.386;2022-07-04T13:36:49;27.20;86.70
22526;DHT22;11429;50.842;4.386;2022-07-04T13:39:17;27.30;87.10
22526;DHT22;11429;50.842;4.386;2022-07-04T13:41:42;27.20;87.50
22526;DHT22;11429;50.842;4.386;2022-07-04T13:44:08;26.60;90.00
22526;DHT22;11429;50.842;4.386;2022-07-04T13:46:34;26.50;89.60
22526;DHT22;11429;50.842;4.386;2022-07-04T13:49:04;26.90;89.60
22526;DHT22;11429;50.842;4.386;2022-07-04T13:51:30;27.60;87.00
22526;DHT22;11429;50.842;4.386;2022-07-04T13:53:56;27.30;89.10
22526;DHT22;11429;50.842;4.386;2022-07-04T13:56:23;26.40;90.20
22526;DHT22;11429;50.842;4.386;2022-07-04T13:58:49;26.10;90.80
22526;DHT22;11429;50.842;4.386;2022-07-04T14:01:15;25.70;91.10
22526;DHT22;11429;50.842;4.386;2022-07-04T14:03:43;25.90;91.20
22526;DHT22;11429;50.842;4.386;2022-07-04T14:06:09;26.10;91.10
22526;DHT22;11429;50.842;4.386;2022-07-04T14:08:35;26.20;90.80
22526;DHT22;11429;50.842;4.386;2022-07-04T14:11:01;26.10;90.70
22526;DHT22;11429;50.842;4.386;2022-07-04T14:13:27;25.90;90.90
22526;DHT22;11429;50.842;4.386;2022-07-04T14:15:53;26.20;90.70
22526;DHT22;11429;50.842;4.386;2022-07-04T14:18:19;26.30;90.80
22526;DHT22;11429;50.842;4.386;2022-07-04T14:20:45;26.40;91.10
22526;DHT22;11429;50.842;4.386;2022-07-04T14:23:16;26.70;91.20
22526;DHT22;11429;50.842;4.386;2022-07-04T14:26:04;26.60;91.30
22526;DHT22;11429;50.842;4.386;2022-07-04T14:28:31;26.60;91.50
22526;DHT22;11429;50.842;4.386;2022-07-04T14:30:57;26.80;91.20
22526;DHT22;11429;50.842;4.386;2022-07-04T14:33:23;26.70;91.00
22526;DHT22;11429;50.842;4.386;2022-07-04T14:35:49;26.80;90.80
22526;DHT22;11429;50.842;4.386;2022-07-04T14:38:15;26.70;91.10
22526;DHT22;11429;50.842;4.386;2022-07-04T14:40:41;26.30;91.40
22526;DHT22;11429;50.842;4.386;2022-07-04T14:43:11;26.60;90.60
22526;DHT22;11429;50.842;4.386;2022-07-04T14:45:38;26.90;90.10
22526;DHT22;11429;50.842;4.386;2022-07-04T14:48:04;27.00;91.20
22526;DHT22;11429;50.842;4.386;2022-07-04T14:50:30;26.60;91.10
22526;DHT22;11429;50.842;4.386;2022-07-04T14:52:56;26.30;91.50
22526;DHT22;11429;50.842;4.386;2022-07-04T14:55:22;26.50;92.10
22526;DHT22;11429;50.842;4.386;2022-07-04T14:57:48;26.50;91.40
22526;DHT22;11429;50.842;4.386;2022-07-04T15:00:14;26.10;91.60
22526;DHT22;11429;50.842;4.386;2022-07-04T15:02:40;26.30;91.70
22526;DHT22;11429;50.842;4.386;2022-07-04T15:05:06;26.40;91.50
22526;DHT22;11429;50.842;4.386;2022-07-04T15:07:33;26.30;91.70
22526;DHT22;11429;50.842;4.386;2022-07-04T15:09:59;26.00;92.00
22526;DHT22;11429;50.842;4.386;2022-07-04T15:12:25;26.10;92.20
22526;DHT22;11429;50.842;4.386;2022-07-04T15:14:51;26.30;92.40
22526;DHT22;11429;50.842;4.386;2022-07-04T15:17:17;26.00;91.60
22526;DHT22;11429;50.842;4.386;2022-07-04T15:19:43;25.40;92.10
22526;DHT22;11429;50.842;4.386;2022-07-04T15:22:27;25.30;92.00
22526;DHT22;11429;50.842;4.386;2022-07-04T15:25:11;25.50;92.30
22526;DHT22;11429;50.842;4.386;2022-07-04T15:27:37;25.50;92.80
22526;DHT22;11429;50.842;4.386;2022-07-04T15:30:03;25.30;93.10
22526;DHT22;11429;50.842;4.386;2022-07-04T15:32:28;25.50;92.80
22526;DHT22;11429;50.842;4.386;2022-07-04T15:34:54;25.20;92.90
22526;DHT22;11429;50.842;4.386;2022-07-04T15:37:20;25.30;93.40
22526;DHT22;11429;50.842;4.386;2022-07-04T15:39:45;25.60;93.00
22526;DHT22;11429;50.842;4.386;2022-07-04T15:42:11;25.70;93.00
22526;DHT22;11429;50.842;4.386;2022-07-04T15:44:37;25.30;92.00
22526;DHT22;11429;50.842;4.386;2022-07-04T15:47:02;25.50;93.10
22526;DHT22;11429;50.842;4.386;2022-07-04T15:49:34;25.00;92.60
22526;DHT22;11429;50.842;4.386;2022-07-04T15:52:00;24.70;93.00
22526;DHT22;11429;50.842;4.386;2022-07-04T15:54:26;24.90;92.80